Time;durP1;ratioP1;P1;durP2;ratioP2;P2;SDS_P1;SDS_P2;PMS_P1;PMS_P2;Temp;Humidity;BMP_temperature;BMP_pressure;BME280_temperature;BME280_humidity;BME280_pressure;Samples;Min_cycle;Max_cycle;Signal;HPM_P1;HPM_P2
2021/05/15 00:01:41;;;;;;;41.75;16.35;;;12.20;58.90;;;;;;5040489;28;20649;-62
2021/05/15 00:04:09;;;;;;;44.95;17.73;;;12.10;58.80;;;;;;5034313;28;20121;-61
2021/05/15 00:06:37;;;;;;;45.38;17.23;;;12.10;58.80;;;;;;5035418;28;20041;-62
2021/05/15 00:09:04;;;;;;;41.83;17.10;;;12.00;58.80;;;;;;5038218;28;20131;-62
2021/05/15 00:11:29;;;;;;;45.63;17.60;;;12.00;59.00;;;;;;5040598;28;20064;-61
2021/05/15 00:13:55;;;;;;;46.80;17.95;;;12.00;59.10;;;;;;5030436;28;20047;-61
2021/05/15 00:16:21;;;;;;;44.85;17.52;;;11.90;59.10;;;;;;5026982;28;20040;-62
2021/05/15 00:18:46;;;;;;;47.90;17.67;;;11.90;59.10;;;;;;5022315;28;20093;-62
2021/05/15 00:21:13;;;;;;;52.38;18.90;;;11.80;59.10;;;;;;5027534;28;20067;-62
2021/05/15 00:23:40;;;;;;;48.22;18.02;;;11.80;59.20;;;;;;5034521;28;20047;-62
2021/05/15 00:26:11;;;;;;;49.83;18.33;;;11.80;59.30;;;;;;5036713;28;21265;-62
2021/05/15 00:28:41;;;;;;;47.25;17.90;;;11.80;59.40;;;;;;5038138;28;20580;-62
2021/05/15 00:31:07;;;;;;;49.35;18.70;;;11.80;59.50;;;;;;5037475;28;20105;-62
2021/05/15 00:33:35;;;;;;;42.60;16.17;;;11.80;59.50;;;;;;5034100;28;20501;-62
2021/05/15 00:36:05;;;;;;;37.47;15.73;;;11.80;59.50;;;;;;5034252;28;20036;-61
2021/05/15 00:38:33;;;;;;;41.83;16.52;;;11.70;59.50;;;;;;5041345;28;20094;-62
2021/05/15 00:40:59;;;;;;;38.90;15.85;;;11.60;59.40;;;;;;5032973;28;20048;-61
2021/05/15 00:43:27;;;;;;;45.15;15.00;;;11.60;59.40;;;;;;5037327;28;20029;-62
2021/05/15 00:45:55;;;;;;;46.47;17.33;;;11.60;59.50;;;;;;5037627;28;20402;-62
2021/05/15 00:48:22;;;;;;;41.55;16.85;;;11.50;59.50;;;;;;5035811;28;20122;-62
2021/05/15 00:50:48;;;;;;;43.95;16.70;;;11.50;59.50;;;;;;5035780;28;20094;-62
2021/05/15 00:53:13;;;;;;;51.65;16.83;;;11.50;59.50;;;;;;5025584;28;20033;-62
2021/05/15 00:55:39;;;;;;;47.70;15.98;;;11.50;59.60;;;;;;5036954;28;20040;-61
2021/05/15 00:58:05;;;;;;;41.70;16.23;;;11.40;59.60;;;;;;5035921;28;20082;-61
2021/05/15 01:00:35;;;;;;;44.50;16.88;;;11.40;59.60;;;;;;5031007;28;20110;-62
2021/05/15 01:03:03;;;;;;;46.88;16.33;;;11.40;59.60;;;;;;5038622;28;20154;-62
2021/05/15 01:05:31;;;;;;;48.30;17.40;;;11.40;59.70;;;;;;5036391;28;20291;-61
2021/05/15 01:07:57;;;;;;;45.50;15.95;;;11.40;59.70;;;;;;5033376;28;20051;-62
2021/05/15 01:10:26;;;;;;;46.00;17.00;;;11.30;59.70;;;;;;5034356;28;20032;-62
2021/05/15 01:12:56;;;;;;;44.53;15.77;;;11.30;59.70;;;;;;5028787;28;20024;-62
2021/05/15 01:15:25;;;;;;;50.55;15.77;;;11.30;59.70;;;;;;5040415;28;20044;-61
2021/05/15 01:17:55;;;;;;;53.78;17.77;;;11.20;59.70;;;;;;5032189;28;20037;-61
2021/05/15 01:20:26;;;;;;;45.15;16.40;;;11.20;59.80;;;;;;5036672;28;20144;-61
2021/05/15 01:22:53;;;;;;;44.22;16.67;;;11.20;59.90;;;;;;5022402;28;20330;-61
2021/05/15 01:25:22;;;;;;;49.90;17.67;;;11.20;59.90;;;;;;5037585;28;20040;-61
2021/05/15 01:27:47;;;;;;;46.67;16.55;;;11.10;59.90;;;;;;5031339;28;20050;-62
2021/05/15 01:30:15;;;;;;;37.13;14.18;;;11.10;59.90;;;;;;5030620;28;20033;-62
2021/05/15 01:32:48;;;;;;;40.83;13.40;;;11.10;59.90;;;;;;5024282;28;20041;-62
2021/05/15 01:35:16;;;;;;;36.72;13.82;;;11.00;59.90;;;;;;5028339;28;20057;-62
2021/05/15 01:37:44;;;;;;;33.20;13.68;;;11.00;60.00;;;;;;5029827;28;20125;-63
2021/05/15 01:40:11;;;;;;;43.38;13.98;;;11.00;60.00;;;;;;5034888;28;20040;-63
2021/05/15 01:42:36;;;;;;;40.25;12.55;;;11.00;60.00;;;;;;5033074;28;20045;-61
2021/05/15 01:45:06;;;;;;;30.27;11.48;;;11.00;60.10;;;;;;5031474;28;20047;-62
2021/05/15 01:47:41;;;;;;;35.28;13.15;;;11.00;60.00;;;;;;5031731;28;20037;-62
2021/05/15 01:50:12;;;;;;;40.30;13.70;;;10.90;60.00;;;;;;5034852;28;20465;-62
2021/05/15 01:52:37;;;;;;;42.92;15.63;;;10.90;60.20;;;;;;5037051;28;20792;-62
2021/05/15 01:55:11;;;;;;;49.47;16.77;;;10.90;60.20;;;;;;5034952;28;20048;-62
2021/05/15 01:57:37;;;;;;;49.78;16.80;;;10.90;60.30;;;;;;5042476;28;20047;-62
2021/05/15 02:00:03;;;;;;;34.70;12.55;;;10.90;60.30;;;;;;5033182;28;20310;-62
2021/05/15 02:02:29;;;;;;;30.70;11.23;;;10.90;60.20;;;;;;5024717;28;20044;-61
2021/05/15 02:04:54;;;;;;;37.58;13.32;;;10.80;60.10;;;;;;5024615;28;20033;-63
2021/05/15 02:07:26;;;;;;;40.97;12.50;;;10.80;60.30;;;;;;5027131;28;20029;-61
2021/05/15 02:09:52;;;;;;;38.20;12.63;;;10.80;60.40;;;;;;5031272;28;20124;-62
2021/05/15 02:12:20;;;;;;;40.60;13.70;;;10.80;60.50;;;;;;5035667;28;20040;-62
2021/05/15 02:14:52;;;;;;;38.90;15.02;;;10.90;60.80;;;;;;5032517;28;20045;-62
2021/05/15 02:17:18;;;;;;;45.92;15.13;;;10.90;61.00;;;;;;5032182;28;20046;-61
2021/05/15 02:19:43;;;;;;;41.13;13.73;;;11.00;61.10;;;;;;5033417;28;20044;-62
2021/05/15 02:22:09;;;;;;;39.17;15.38;;;11.10;61.10;;;;;;5036306;28;20716;-62
2021/05/15 02:24:42;;;;;;;42.45;15.93;;;11.10;61.20;;;;;;5024502;28;20064;-62
2021/05/15 02:27:10;;;;;;;53.13;15.55;;;11.30;61.40;;;;;;5039552;28;20090;-63
2021/05/15 02:29:35;;;;;;;44.53;16.30;;;11.30;61.40;;;;;;5039427;28;20037;-62
2021/05/15 02:32:01;;;;;;;46.30;15.80;;;11.40;61.40;;;;;;5029408;28;20052;-62
2021/05/15 02:34:26;;;;;;;40.15;14.85;;;11.50;61.40;;;;;;5028397;28;20067;-62
2021/05/15 02:36:54;;;;;;;44.67;15.55;;;11.50;61.40;;;;;;5040305;28;20777;-62
2021/05/15 02:39:22;;;;;;;39.92;15.63;;;11.60;61.40;;;;;;5036245;28;20102;-63
2021/05/15 02:41:50;;;;;;;45.83;16.13;;;11.70;61.40;;;;;;5036309;28;20126;-62
2021/05/15 02:44:16;;;;;;;53.40;18.75;;;11.80;61.60;;;;;;5034769;28;20125;-63
2021/05/15 02:46:46;;;;;;;49.47;17.40;;;11.80;61.40;;;;;;5039050;28;20161;-62
2021/05/15 02:49:11;;;;;;;54.67;19.52;;;11.90;61.60;;;;;;5035318;28;20105;-62
2021/05/15 02:51:39;;;;;;;51.03;18.88;;;11.90;61.40;;;;;;5039449;28;21979;-62
2021/05/15 02:54:05;;;;;;;45.35;15.93;;;12.00;61.50;;;;;;5031101;28;20060;-62
2021/05/15 02:56:33;;;;;;;45.63;16.23;;;12.00;61.40;;;;;;5042395;28;20127;-61
2021/05/15 02:58:59;;;;;;;41.75;16.63;;;12.10;61.50;;;;;;5033255;28;20156;-63
2021/05/15 03:01:24;;;;;;;48.15;17.67;;;12.10;61.30;;;;;;5038719;28;20498;-62
2021/05/15 03:03:50;;;;;;;54.30;19.52;;;12.10;61.40;;;;;;5033649;28;20871;-62
2021/05/15 03:06:15;;;;;;;53.78;18.20;;;12.10;61.40;;;;;;5042390;28;20487;-62
2021/05/15 03:08:41;;;;;;;56.60;19.52;;;12.20;61.50;;;;;;5035565;28;20063;-61
2021/05/15 03:11:09;;;;;;;61.30;21.85;;;12.30;61.50;;;;;;5030326;28;20044;-61
2021/05/15 03:13:34;;;;;;;55.70;20.48;;;12.30;61.50;;;;;;5041755;28;20803;-62
2021/05/15 03:16:02;;;;;;;54.75;19.10;;;12.40;61.50;;;;;;5046687;28;20116;-62
2021/05/15 03:18:30;;;;;;;57.38;20.73;;;12.40;61.60;;;;;;5032593;28;20048;-63
2021/05/15 03:20:56;;;;;;;56.60;19.40;;;12.50;61.60;;;;;;5040431;28;20685;-62
2021/05/15 03:23:26;;;;;;;45.67;17.50;;;12.60;61.60;;;;;;5043297;28;20495;-62
2021/05/15 03:25:56;;;;;;;56.08;20.58;;;12.60;61.60;;;;;;5052218;28;20407;-61
2021/05/15 03:28:22;;;;;;;57.53;20.42;;;12.60;61.50;;;;;;5037047;28;20036;-62
2021/05/15 03:30:50;;;;;;;57.95;19.63;;;12.70;61.50;;;;;;5038417;28;20033;-62
2021/05/15 03:33:15;;;;;;;52.42;19.65;;;12.70;61.50;;;;;;5039325;28;21367;-61
2021/05/15 03:35:43;;;;;;;50.03;18.88;;;12.80;61.50;;;;;;5034228;28;20039;-61
2021/05/15 03:38:09;;;;;;;57.22;20.75;;;12.80;61.50;;;;;;5023247;28;21509;-62
2021/05/15 03:40:35;;;;;;;52.75;20.88;;;12.80;61.40;;;;;;5039561;28;20189;-62
2021/05/15 03:43:02;;;;;;;58.33;21.63;;;12.90;61.50;;;;;;5041248;28;20494;-62
2021/05/15 03:45:30;;;;;;;63.47;22.83;;;12.90;61.30;;;;;;5039325;28;20134;-61
2021/05/15 03:47:56;;;;;;;60.15;20.83;;;12.90;61.40;;;;;;5036254;28;20457;-63
2021/05/15 03:50:27;;;;;;;52.42;20.85;;;13.00;61.40;;;;;;5039733;28;20101;-61
2021/05/15 03:52:53;;;;;;;54.67;20.58;;;13.00;61.50;;;;;;5028664;28;20040;-62
2021/05/15 03:55:23;;;;;;;61.33;21.55;;;13.00;61.30;;;;;;5030128;28;20072;-62
2021/05/15 03:57:53;;;;;;;50.00;19.80;;;13.00;61.30;;;;;;5029438;28;20048;-62
2021/05/15 04:00:22;;;;;;;53.53;20.50;;;13.10;61.40;;;;;;5031134;28;20040;-61
2021/05/15 04:02:49;;;;;;;56.63;21.88;;;13.10;61.40;;;;;;5033516;28;20135;-62
2021/05/15 04:05:17;;;;;;;53.67;20.92;;;13.10;61.30;;;;;;5028864;28;20490;-62
2021/05/15 04:07:45;;;;;;;55.15;21.38;;;13.20;61.30;;;;;;5030161;28;20124;-63
2021/05/15 04:10:11;;;;;;;53.60;20.25;;;13.20;61.40;;;;;;5028998;28;20218;-61
2021/05/15 04:12:38;;;;;;;57.83;20.85;;;13.20;61.40;;;;;;5028517;28;20684;-62
2021/05/15 04:15:09;;;;;;;50.83;20.67;;;13.30;61.20;;;;;;5032350;28;20137;-63
2021/05/15 04:17:35;;;;;;;57.95;22.92;;;13.30;61.20;;;;;;5029214;28;20037;-63
2021/05/15 04:20:00;;;;;;;51.20;21.13;;;13.30;61.10;;;;;;5032133;28;20163;-63
2021/05/15 04:22:27;;;;;;;55.15;20.15;;;13.30;61.10;;;;;;5032741;28;20599;-62
2021/05/15 04:24:54;;;;;;;52.63;21.17;;;13.40;61.90;;;;;;5036303;28;20039;-62
2021/05/15 04:27:22;;;;;;;58.67;21.77;;;13.40;61.10;;;;;;5033976;28;20105;-61
2021/05/15 04:29:49;;;;;;;50.45;21.55;;;13.50;61.20;;;;;;5029634;28;20043;-62
2021/05/15 04:32:17;;;;;;;53.00;20.77;;;13.50;61.20;;;;;;5024957;28;20044;-62
2021/05/15 04:34:45;;;;;;;54.45;21.35;;;13.60;61.30;;;;;;5028508;28;20045;-61
2021/05/15 04:37:13;;;;;;;62.15;23.05;;;13.60;61.20;;;;;;5032655;28;21963;-62
2021/05/15 04:39:41;;;;;;;53.75;21.48;;;13.70;61.30;;;;;;5029203;28;20182;-62
2021/05/15 04:42:09;;;;;;;49.05;21.17;;;13.80;61.30;;;;;;5030637;28;20045;-61
2021/05/15 04:44:37;;;;;;;57.13;22.15;;;13.80;61.30;;;;;;5034429;28;20135;-61
2021/05/15 04:47:03;;;;;;;58.88;23.13;;;13.90;61.30;;;;;;5028843;28;20171;-62
2021/05/15 04:49:28;;;;;;;59.67;22.13;;;14.00;61.30;;;;;;5038548;28;20845;-63
2021/05/15 04:51:56;;;;;;;59.80;23.95;;;14.00;61.20;;;;;;5028948;28;20048;-63
2021/05/15 04:54:22;;;;;;;59.63;24.08;;;14.10;61.00;;;;;;5032264;28;20076;-62
2021/05/15 04:56:47;;;;;;;54.92;22.80;;;14.10;60.80;;;;;;5028074;28;20189;-63
2021/05/15 04:59:13;;;;;;;54.90;22.67;;;14.10;61.00;;;;;;5034873;28;20033;-62
2021/05/15 05:01:38;;;;;;;60.13;23.00;;;14.20;61.00;;;;;;5033818;28;21001;-63
2021/05/15 05:04:08;;;;;;;60.63;24.42;;;14.20;60.70;;;;;;5034640;28;20044;-63
2021/05/15 05:06:33;;;;;;;58.92;25.35;;;14.30;60.50;;;;;;5042086;28;20032;-62
2021/05/15 05:08:59;;;;;;;59.15;23.00;;;14.30;60.30;;;;;;5028825;28;20046;-62
2021/05/15 05:11:25;;;;;;;48.47;22.77;;;14.30;60.20;;;;;;5025896;28;20046;-63
2021/05/15 05:13:50;;;;;;;49.25;23.17;;;14.30;60.00;;;;;;5037257;27;20044;-62
2021/05/15 05:16:18;;;;;;;50.05;20.63;;;14.30;59.80;;;;;;5050196;28;20539;-61
2021/05/15 05:18:44;;;;;;;47.67;20.90;;;14.30;59.90;;;;;;5048750;28;20066;-62
2021/05/15 05:21:09;;;;;;;39.13;18.83;;;14.30;59.90;;;;;;5050941;28;20464;-61
2021/05/15 05:23:37;;;;;;;38.80;18.90;;;14.30;59.90;;;;;;5045566;28;20492;-62
2021/05/15 05:26:05;;;;;;;33.58;17.90;;;14.30;59.80;;;;;;5046443;28;20074;-61
2021/05/15 05:28:35;;;;;;;39.33;19.30;;;14.30;59.80;;;;;;5042860;28;20048;-62
2021/05/15 05:31:03;;;;;;;48.28;19.58;;;14.40;59.70;;;;;;5048804;28;20029;-63
2021/05/15 05:33:32;;;;;;;47.97;20.80;;;14.40;59.60;;;;;;5046032;28;20755;-63
2021/05/15 05:35:57;;;;;;;46.17;20.42;;;14.50;59.50;;;;;;5040260;28;20032;-63
2021/05/15 05:38:23;;;;;;;41.33;20.30;;;14.50;59.50;;;;;;5049334;28;20102;-63
2021/05/15 05:40:49;;;;;;;38.15;19.70;;;14.50;59.40;;;;;;5046990;28;20032;-63
2021/05/15 05:43:14;;;;;;;45.97;21.63;;;14.60;59.40;;;;;;5047674;28;20037;-62
2021/05/15 05:45:40;;;;;;;43.00;20.17;;;14.60;59.20;;;;;;5050452;28;20041;-62
2021/05/15 05:48:06;;;;;;;40.33;19.88;;;14.70;59.20;;;;;;5049020;28;20036;-62
2021/05/15 05:50:35;;;;;;;41.38;19.63;;;14.70;59.10;;;;;;5051768;28;20037;-62
2021/05/15 05:53:03;;;;;;;42.75;19.80;;;14.70;59.00;;;;;;5055607;28;20060;-62
2021/05/15 05:55:33;;;;;;;39.88;18.05;;;14.80;58.80;;;;;;5048487;28;20091;-62
2021/05/15 05:58:05;;;;;;;41.50;19.13;;;14.80;58.60;;;;;;5048509;28;20088;-62
2021/05/15 06:00:32;;;;;;;36.92;18.73;;;14.90;59.10;;;;;;5049831;28;20473;-62
2021/05/15 06:03:00;;;;;;;37.05;18.40;;;14.90;58.30;;;;;;5061676;28;20048;-62
2021/05/15 06:05:25;;;;;;;39.17;19.00;;;14.90;58.00;;;;;;5055688;28;20041;-62
2021/05/15 06:07:53;;;;;;;45.13;18.58;;;14.90;58.00;;;;;;5052837;28;20036;-61
2021/05/15 06:10:19;;;;;;;37.70;17.60;;;14.90;58.00;;;;;;5049597;28;20032;-62
2021/05/15 06:12:47;;;;;;;42.25;18.77;;;14.90;57.90;;;;;;5054559;28;20044;-62
2021/05/15 06:15:12;;;;;;;40.65;19.27;;;14.90;57.60;;;;;;5040410;28;20067;-63
2021/05/15 06:17:38;;;;;;;39.22;18.55;;;14.90;57.70;;;;;;5035912;28;20040;-63
2021/05/15 06:20:06;;;;;;;33.70;18.65;;;14.90;57.90;;;;;;5044012;28;20036;-62
2021/05/15 06:22:32;;;;;;;34.65;17.35;;;15.00;57.90;;;;;;5050117;28;20150;-62
2021/05/15 06:25:00;;;;;;;33.55;18.40;;;15.00;57.90;;;;;;5046148;28;20405;-62
2021/05/15 06:27:27;;;;;;;33.05;18.05;;;15.20;57.90;;;;;;5046245;28;20036;-62
2021/05/15 06:29:56;;;;;;;33.42;17.13;;;15.30;57.80;;;;;;5041069;28;20649;-62
2021/05/15 06:32:24;;;;;;;36.28;16.42;;;15.40;57.20;;;;;;5046450;28;20036;-62
2021/05/15 06:34:49;;;;;;;31.05;17.50;;;15.50;57.20;;;;;;5046846;28;20580;-62
2021/05/15 06:37:15;;;;;;;36.28;17.80;;;15.70;57.10;;;;;;5051072;28;20040;-62
2021/05/15 06:39:40;;;;;;;32.30;16.45;;;15.80;56.90;;;;;;5049002;28;20040;-62
2021/05/15 06:42:06;;;;;;;35.08;17.27;;;15.90;56.50;;;;;;5052019;28;20406;-62
2021/05/15 06:44:34;;;;;;;32.10;16.85;;;16.00;56.30;;;;;;5056178;28;20036;-62
2021/05/15 06:46:59;;;;;;;33.92;17.08;;;16.00;55.90;;;;;;5046171;28;20079;-63
2021/05/15 06:49:25;;;;;;;36.70;17.52;;;16.00;55.80;;;;;;5039890;28;20039;-62
2021/05/15 06:51:53;;;;;;;29.50;16.48;;;16.00;55.60;;;;;;5046578;28;20529;-62
2021/05/15 06:54:21;;;;;;;32.47;16.75;;;16.00;55.50;;;;;;5049774;28;20049;-62
2021/05/15 06:56:54;;;;;;;34.08;16.98;;;16.00;55.40;;;;;;5044789;28;20537;-62
2021/05/15 06:59:20;;;;;;;32.05;16.88;;;16.00;55.40;;;;;;5049094;28;20505;-62
2021/05/15 07:01:48;;;;;;;36.40;17.15;;;16.00;55.40;;;;;;5039756;28;20033;-61
2021/05/15 07:04:13;;;;;;;28.88;16.55;;;16.00;55.30;;;;;;5049623;28;20044;-63
2021/05/15 07:06:39;;;;;;;30.27;16.23;;;15.90;55.10;;;;;;5041981;28;20414;-62
2021/05/15 07:09:11;;;;;;;34.05;16.33;;;15.80;55.10;;;;;;5044757;28;20052;-62
2021/05/15 07:11:39;;;;;;;33.78;16.55;;;15.80;55.20;;;;;;5042980;28;20662;-62
2021/05/15 07:14:05;;;;;;;31.63;16.92;;;15.70;55.30;;;;;;5060956;28;20041;-62
2021/05/15 07:16:31;;;;;;;34.50;17.65;;;15.60;55.50;;;;;;5045867;28;20059;-63
2021/05/15 07:18:56;;;;;;;33.50;16.73;;;15.60;55.60;;;;;;5035923;28;20112;-62
2021/05/15 07:21:22;;;;;;;34.50;17.42;;;15.60;56.10;;;;;;5040436;28;20055;-62
2021/05/15 07:23:47;;;;;;;36.67;18.08;;;15.60;56.30;;;;;;5044174;28;20029;-62
2021/05/15 07:26:13;;;;;;;32.45;17.13;;;15.60;56.40;;;;;;5036800;28;20025;-62
2021/05/15 07:28:38;;;;;;;33.03;16.88;;;15.60;56.50;;;;;;5032353;28;20029;-61
2021/05/15 07:31:05;;;;;;;32.67;17.48;;;15.70;56.60;;;;;;5035373;28;20048;-61
2021/05/15 07:33:30;;;;;;;35.78;16.67;;;15.80;56.60;;;;;;5034135;28;20119;-63
2021/05/15 07:35:56;;;;;;;30.33;17.05;;;15.80;56.50;;;;;;5033358;28;20037;-62
2021/05/15 07:38:22;;;;;;;31.65;16.98;;;15.90;56.30;;;;;;5038283;28;20051;-62
2021/05/15 07:40:51;;;;;;;36.65;17.73;;;15.90;56.20;;;;;;5043516;28;20032;-62
2021/05/15 07:43:25;;;;;;;32.65;16.85;;;16.00;56.20;;;;;;5040252;28;20033;-61
2021/05/15 07:45:56;;;;;;;33.08;17.35;;;16.10;56.20;;;;;;5046366;28;20406;-61
2021/05/15 07:48:37;;;;;;;41.90;18.52;;;16.10;55.90;;;;;;5049935;28;20134;-63
2021/05/15 07:51:06;;;;;;;40.60;17.92;;;16.20;55.90;;;;;;5052626;28;20450;-63
2021/05/15 07:53:32;;;;;;;35.58;17.83;;;16.20;55.80;;;;;;5042386;28;20063;-63
2021/05/15 07:55:57;;;;;;;31.73;17.95;;;16.30;55.80;;;;;;5048280;28;20040;-61
2021/05/15 07:58:23;;;;;;;33.28;17.27;;;16.40;55.50;;;;;;5043268;28;20029;-63
2021/05/15 08:00:51;;;;;;;36.90;18.10;;;16.40;55.20;;;;;;5045267;28;20467;-63
2021/05/15 08:03:19;;;;;;;32.25;17.23;;;16.40;54.90;;;;;;5049852;28;20032;-62
2021/05/15 08:05:44;;;;;;;35.00;18.38;;;16.40;55.00;;;;;;5045999;28;20574;-62
2021/05/15 08:08:13;;;;;;;36.85;17.95;;;16.40;55.20;;;;;;5050780;28;20040;-62
2021/05/15 08:10:42;;;;;;;35.22;18.38;;;16.40;55.20;;;;;;5049633;28;20454;-62
2021/05/15 08:13:12;;;;;;;38.13;19.13;;;16.40;55.00;;;;;;5045768;28;20028;-63
2021/05/15 08:15:40;;;;;;;35.25;19.05;;;16.40;54.80;;;;;;5045855;28;20593;-61
2021/05/15 08:18:08;;;;;;;37.70;18.60;;;16.40;54.80;;;;;;5049381;28;20039;-61
2021/05/15 08:20:38;;;;;;;36.45;19.65;;;16.40;55.10;;;;;;5046519;28;20040;-62
2021/05/15 08:23:09;;;;;;;38.60;18.70;;;16.50;55.00;;;;;;5053280;28;20171;-63
2021/05/15 08:25:35;;;;;;;38.30;20.25;;;16.50;54.90;;;;;;5053679;28;20044;-61
2021/05/15 08:28:05;;;;;;;42.03;19.42;;;16.50;54.80;;;;;;5049390;28;20499;-62
2021/05/15 08:30:32;;;;;;;41.92;19.35;;;16.50;54.60;;;;;;5049823;28;20510;-62
2021/05/15 08:32:58;;;;;;;41.47;20.20;;;16.40;54.60;;;;;;5041681;28;20051;-63
2021/05/15 08:35:24;;;;;;;46.17;20.75;;;16.30;54.70;;;;;;5046112;28;20048;-62
2021/05/15 08:37:50;;;;;;;43.25;20.65;;;16.20;54.80;;;;;;5046813;28;20037;-61
2021/05/15 08:40:17;;;;;;;42.63;20.38;;;16.20;55.00;;;;;;5046075;28;20067;-62
2021/05/15 08:42:43;;;;;;;41.40;21.73;;;16.20;55.40;;;;;;5043896;28;20051;-62
2021/05/15 08:45:13;;;;;;;47.17;22.45;;;16.20;55.60;;;;;;5037158;27;20049;-63
2021/05/15 08:47:46;;;;;;;37.67;21.10;;;16.30;55.60;;;;;;5036273;28;20390;-62
2021/05/15 08:50:19;;;;;;;45.55;22.17;;;16.40;55.40;;;;;;5039457;28;20103;-63
2021/05/15 08:52:50;;;;;;;43.28;19.85;;;16.40;55.60;;;;;;5040904;28;20098;-61
2021/05/15 08:55:20;;;;;;;45.58;21.40;;;16.50;55.60;;;;;;5041573;28;20098;-62
2021/05/15 08:57:49;;;;;;;42.58;21.83;;;16.60;55.40;;;;;;5045144;28;20040;-63
2021/05/15 09:00:24;;;;;;;45.47;20.95;;;16.60;55.20;;;;;;5047536;28;20043;-62
2021/05/15 09:02:54;;;;;;;50.22;21.92;;;16.70;55.00;;;;;;5044650;28;20059;-62
2021/05/15 09:05:23;;;;;;;52.17;22.85;;;16.70;55.00;;;;;;5042549;28;20127;-61
2021/05/15 09:07:52;;;;;;;47.30;22.92;;;16.70;55.10;;;;;;5043382;28;20037;-62
2021/05/15 09:10:21;;;;;;;49.10;21.60;;;16.80;55.20;;;;;;5044477;28;20037;-63
2021/05/15 09:12:47;;;;;;;48.08;22.13;;;16.80;54.80;;;;;;5042605;28;20070;-62
2021/05/15 09:15:14;;;;;;;45.72;21.20;;;16.90;54.50;;;;;;5041891;28;20044;-62
2021/05/15 09:17:50;;;;;;;43.35;20.83;;;16.90;54.50;;;;;;5043733;28;20141;-62
2021/05/15 09:20:33;;;;;;;46.67;22.10;;;17.00;54.80;;;;;;5046282;28;20032;-62
2021/05/15 09:23:10;;;;;;;49.15;21.48;;;17.10;54.80;;;;;;5052309;28;20674;-62
2021/05/15 09:25:38;;;;;;;45.47;21.13;;;17.10;54.50;;;;;;5051035;28;20032;-62
2021/05/15 09:28:04;;;;;;;42.90;21.27;;;17.20;54.70;;;;;;5053542;28;20504;-62
2021/05/15 09:30:33;;;;;;;47.55;20.90;;;17.30;54.60;;;;;;5045230;28;20033;-61
2021/05/15 09:33:10;;;;;;;50.92;22.45;;;17.40;54.30;;;;;;5047551;28;20040;-63
2021/05/15 09:35:38;;;;;;;45.63;21.60;;;17.50;54.10;;;;;;5047495;28;20040;-63
2021/05/15 09:38:04;;;;;;;43.47;21.10;;;17.60;54.10;;;;;;5035786;28;20096;-62
2021/05/15 09:40:29;;;;;;;44.60;20.42;;;17.70;54.10;;;;;;5047952;28;20109;-62
2021/05/15 09:43:00;;;;;;;46.03;22.15;;;18.00;54.10;;;;;;5049294;28;20044;-63
2021/05/15 09:45:36;;;;;;;44.90;21.58;;;18.10;53.30;;;;;;5050894;28;20409;-62
2021/05/15 09:48:06;;;;;;;47.20;21.83;;;18.20;52.90;;;;;;5049608;28;20128;-61
2021/05/15 09:50:37;;;;;;;46.03;23.20;;;18.30;53.00;;;;;;5051084;28;20407;-62
2021/05/15 09:53:15;;;;;;;45.40;23.48;;;18.40;52.90;;;;;;5051738;28;20063;-63
2021/05/15 09:55:51;;;;;;;51.97;25.02;;;18.40;52.60;;;;;;5046826;28;20135;-62
2021/05/15 09:58:19;;;;;;;42.47;24.00;;;18.50;52.60;;;;;;5047689;28;20120;-63
2021/05/15 10:00:54;;;;;;;46.90;25.55;;;18.50;52.60;;;;;;5051493;28;20033;-63
2021/05/15 10:03:27;;;;;;;51.10;25.17;;;18.50;52.60;;;;;;5050313;28;20063;-63
2021/05/15 10:06:13;;;;;;;40.90;23.73;;;18.70;52.80;;;;;;5043178;28;20052;-62
2021/05/15 10:08:40;;;;;;;48.05;25.60;;;18.80;52.60;;;;;;5037560;28;20036;-62
2021/05/15 10:11:06;;;;;;;50.75;26.10;;;19.00;52.30;;;;;;5046605;28;20540;-63
2021/05/15 10:13:39;;;;;;;47.10;25.92;;;19.10;52.00;;;;;;5030902;28;20503;-62
2021/05/15 10:16:06;;;;;;;46.03;25.90;;;19.10;51.70;;;;;;5033222;28;20241;-63
2021/05/15 10:18:32;;;;;;;45.30;25.48;;;19.20;51.80;;;;;;5034830;28;20103;-63
2021/05/15 10:21:01;;;;;;;49.75;25.00;;;19.30;52.00;;;;;;5045971;28;20036;-63
2021/05/15 10:23:37;;;;;;;52.78;26.15;;;19.30;51.60;;;;;;5047989;28;20523;-62
2021/05/15 10:26:13;;;;;;;45.65;26.77;;;19.40;51.20;;;;;;5044174;28;20174;-62
2021/05/15 10:28:39;;;;;;;52.92;27.55;;;19.40;51.50;;;;;;5046607;28;20047;-62
2021/05/15 10:31:19;;;;;;;51.97;26.38;;;19.50;51.20;;;;;;5037728;28;20045;-62
2021/05/15 10:33:48;;;;;;;48.97;26.20;;;19.60;51.00;;;;;;5047635;28;20071;-61
2021/05/15 10:36:22;;;;;;;46.80;26.65;;;19.70;51.20;;;;;;5037406;28;20043;-62
2021/05/15 10:38:49;;;;;;;49.78;27.63;;;;;;;;;;5036213;28;20036;-62
2021/05/15 10:41:28;;;;;;;47.13;25.65;;;20.00;50.90;;;;;;5037965;28;20506;-63
2021/05/15 10:43:56;;;;;;;45.47;27.05;;;20.60;50.10;;;;;;5039441;28;20048;-63
2021/05/15 10:46:33;;;;;;;54.55;26.90;;;20.80;49.80;;;;;;5029100;28;20352;-63
2021/05/15 10:49:05;;;;;;;48.20;27.33;;;20.80;49.10;;;;;;5038716;28;20580;-63
2021/05/15 10:51:46;;;;;;;47.30;27.77;;;20.70;49.00;;;;;;5045437;28;20040;-62
2021/05/15 10:54:29;;;;;;;47.65;26.95;;;20.60;49.10;;;;;;5044881;28;20858;-61
2021/05/15 10:57:02;;;;;;;46.42;26.30;;;20.50;49.10;;;;;;5042007;28;20064;-61
2021/05/15 10:59:31;;;;;;;46.10;26.55;;;20.30;49.00;;;;;;5052503;28;20045;-62
2021/05/15 11:02:03;;;;;;;44.80;27.15;;;20.30;49.50;;;;;;5040400;28;20048;-62
2021/05/15 11:04:46;;;;;;;47.58;26.48;;;20.30;49.80;;;;;;5037753;28;20048;-62
2021/05/15 11:07:12;;;;;;;42.67;25.77;;;20.40;49.90;;;;;;5041371;28;20036;-63
2021/05/15 11:09:50;;;;;;;49.33;26.00;;;20.60;49.20;;;;;;5036768;28;20078;-61
2021/05/15 11:12:19;;;;;;;45.97;26.95;;;20.70;49.20;;;;;;5048845;28;20601;-62
2021/05/15 11:14:58;;;;;;;49.67;27.65;;;20.90;49.00;;;;;;5043726;28;20159;-61
2021/05/15 11:17:29;;;;;;;43.90;26.30;;;21.20;49.70;;;;;;5044765;28;20048;-62
2021/05/15 11:20:14;;;;;;;41.72;25.00;;;21.70;47.90;;;;;;5042064;28;20465;-62
2021/05/15 11:22:51;;;;;;;41.58;25.50;;;22.10;47.60;;;;;;5029708;28;20151;-62
2021/05/15 11:25:24;;;;;;;38.53;25.00;;;22.30;46.60;;;;;;5038869;28;20161;-63
2021/05/15 11:27:51;;;;;;;39.13;23.90;;;22.50;45.70;;;;;;5016087;28;20934;-61
2021/05/15 11:30:25;;;;;;;40.65;24.92;;;22.50;45.10;;;;;;5045236;28;20068;-62
2021/05/15 11:33:08;;;;;;;39.13;24.83;;;22.70;44.70;;;;;;5038031;28;20043;-62
2021/05/15 11:35:49;;;;;;;40.78;24.48;;;23.00;44.40;;;;;;5041192;28;20673;-61
2021/05/15 11:38:19;;;;;;;39.35;24.10;;;;;;;;;;5044707;28;20131;-61
2021/05/15 11:40:44;;;;;;;38.05;24.13;;;;;;;;;;5042386;28;20036;-63
2021/05/15 11:43:17;;;;;;;39.67;24.98;;;;;;;;;;5039627;28;20052;-63
2021/05/15 11:45:43;;;;;;;38.17;24.48;;;;;;;;;;5035062;28;20078;-63
2021/05/15 11:48:19;;;;;;;39.67;24.70;;;;;;;;;;5036580;28;20249;-62
2021/05/15 11:51:06;;;;;;;37.80;23.98;;;;;;;;;;5034381;28;20044;-63
2021/05/15 11:53:33;;;;;;;35.25;23.30;;;;;;;;;;5035459;28;20033;-63
2021/05/15 11:56:02;;;;;;;35.17;22.45;;;;;;;;;;5041658;28;20461;-63
2021/05/15 11:58:27;;;;;;;37.10;22.25;;;23.20;44.70;;;;;;5043796;28;20039;-63
2021/05/15 12:00:53;;;;;;;36.08;22.80;;;23.80;41.80;;;;;;5042966;28;20041;-63
2021/05/15 12:03:22;;;;;;;36.78;22.45;;;23.70;41.70;;;;;;5044202;28;20402;-62
2021/05/15 12:05:50;;;;;;;33.85;23.13;;;;;;;;;;5042583;28;20036;-62
2021/05/15 12:08:16;;;;;;;34.53;22.83;;;;;;;;;;5047961;28;20777;-63
2021/05/15 12:10:42;;;;;;;36.83;21.55;;;;;;;;;;5040242;27;20037;-62
2021/05/15 12:13:11;;;;;;;36.60;23.17;;;;;;;;;;5037152;28;20524;-63
2021/05/15 12:15:42;;;;;;;34.92;22.77;;;;;;;;;;5041507;28;20051;-62
2021/05/15 12:18:08;;;;;;;37.97;21.73;;;23.60;42.40;;;;;;5041929;28;20044;-62
2021/05/15 12:20:46;;;;;;;33.58;21.15;;;22.50;43.60;;;;;;5027278;28;20040;-62
2021/05/15 12:23:20;;;;;;;33.95;22.25;;;22.60;42.80;;;;;;5039434;28;20577;-63
2021/05/15 12:26:10;;;;;;;33.67;21.08;;;23.00;42.70;;;;;;5040779;28;20288;-63
2021/05/15 12:28:49;;;;;;;33.30;21.90;;;23.30;42.30;;;;;;5041458;28;20047;-63
2021/05/15 12:31:26;;;;;;;34.25;22.95;;;23.30;41.50;;;;;;5039917;28;20536;-61
2021/05/15 12:33:53;;;;;;;37.90;23.63;;;23.00;42.20;;;;;;5043588;28;20047;-61
2021/05/15 12:36:21;;;;;;;34.83;22.77;;;22.80;42.60;;;;;;5043268;28;20714;-61
2021/05/15 12:38:53;;;;;;;38.78;23.77;;;22.50;42.90;;;;;;5039661;28;20033;-61